createdAt,value
2023-11-01T00:02:12.667Z,14.57
2023-11-01T00:04:39.515Z,14.55
2023-11-01T00:07:06.259Z,14.52
2023-11-01T00:09:32.903Z,14.49
2023-11-01T00:12:00.514Z,14.52
2023-11-01T00:14:27.752Z,14.54
2023-11-01T00:16:54.562Z,14.49
2023-11-01T00:19:21.912Z,14.49
2023-11-01T00:21:48.593Z,14.43
2023-11-01T00:24:15.988Z,14.41
2023-11-01T00:26:42.792Z,14.47
2023-11-01T00:29:09.513Z,14.45
2023-11-01T00:31:36.280Z,14.44
2023-11-01T00:34:03.407Z,14.36
2023-11-01T00:36:30.121Z,14.40
2023-11-01T00:38:56.765Z,14.41
2023-11-01T00:41:23.490Z,14.31
2023-11-01T00:43:50.452Z,14.12
2023-11-01T00:46:17.161Z,14.16
2023-11-01T00:48:44.446Z,14.17
2023-11-01T00:51:11.112Z,14.33
2023-11-01T00:53:37.830Z,14.32
2023-11-01T00:56:04.988Z,14.32
2023-11-01T00:58:31.618Z,14.33
2023-11-01T01:00:58.361Z,14.27
2023-11-01T01:03:25.269Z,14.27
2023-11-01T01:05:51.935Z,14.17
2023-11-01T01:08:19.130Z,14.27
2023-11-01T01:10:45.915Z,14.16
2023-11-01T01:13:12.591Z,14.18
2023-11-01T01:15:39.273Z,14.14
2023-11-01T01:18:06.162Z,14.29
2023-11-01T01:20:33.093Z,14.35
2023-11-01T01:22:59.804Z,14.20
2023-11-01T01:25:26.517Z,13.90
2023-11-01T01:27:53.253Z,13.94
2023-11-01T01:30:20.167Z,14.07
2023-11-01T01:32:46.899Z,14.13
2023-11-01T01:35:14.398Z,14.12
2023-11-01T01:37:41.326Z,14.15
2023-11-01T01:40:08.703Z,14.15
2023-11-01T01:42:35.379Z,14.16
2023-11-01T01:45:02.889Z,14.12
2023-11-01T01:47:29.792Z,13.54
2023-11-01T01:49:56.832Z,13.15
2023-11-01T01:52:23.614Z,13.39
2023-11-01T01:54:51.029Z,13.60
2023-11-01T01:57:25.500Z,13.68
2023-11-01T01:59:56.483Z,13.65
2023-11-01T02:02:23.213Z,13.74
2023-11-01T02:04:50.200Z,13.80
2023-11-01T02:07:17.175Z,13.69
2023-11-01T02:09:44.609Z,13.70
2023-11-01T02:12:11.327Z,13.57
2023-11-01T02:14:38.160Z,13.65
2023-11-01T02:17:07.737Z,13.27
2023-11-01T02:19:34.996Z,13.33
2023-11-01T02:22:01.862Z,13.35
2023-11-01T02:24:29.515Z,13.25
2023-11-01T02:26:56.453Z,13.21
2023-11-01T02:29:23.801Z,13.02
2023-11-01T02:31:51.748Z,13.04
2023-11-01T02:34:18.700Z,13.11
2023-11-01T02:36:45.424Z,12.98
2023-11-01T02:39:12.096Z,12.86
2023-11-01T02:41:40.463Z,12.93
2023-11-01T02:44:09.983Z,12.86
2023-11-01T02:46:37.421Z,12.84
2023-11-01T02:49:05.260Z,12.89
2023-11-01T02:51:32.454Z,12.94
2023-11-01T02:53:59.300Z,12.87
2023-11-01T02:56:26.085Z,12.53
2023-11-01T02:58:52.736Z,12.35
2023-11-01T03:01:22.723Z,12.17
2023-11-01T03:03:50.751Z,12.25
2023-11-01T03:06:17.833Z,12.30
2023-11-01T03:08:46.415Z,12.40
2023-11-01T03:11:13.542Z,12.37
2023-11-01T03:13:40.279Z,12.34
2023-11-01T03:16:07.577Z,12.34
2023-11-01T03:18:34.965Z,12.30
2023-11-01T03:21:01.762Z,12.18
2023-11-01T03:23:28.502Z,12.32
2023-11-01T03:25:55.190Z,12.28
2023-11-01T03:28:22.710Z,12.13
2023-11-01T03:30:49.472Z,11.99
2023-11-01T03:33:16.185Z,12.10
2023-11-01T03:35:42.965Z,11.64
2023-11-01T03:38:09.821Z,11.67
2023-11-01T03:40:36.541Z,11.22
2023-11-01T03:43:05.681Z,11.46
2023-11-01T03:45:32.431Z,11.57
2023-11-01T03:47:59.306Z,11.57
2023-11-01T03:50:26.181Z,11.44
2023-11-01T03:52:52.856Z,11.26
2023-11-01T03:55:19.604Z,11.44
2023-11-01T03:57:46.334Z,11.46
2023-11-01T04:00:22.526Z,11.42
2023-11-01T04:02:53.765Z,11.41
2023-11-01T04:05:21.565Z,11.43
2023-11-01T04:07:48.526Z,11.51
2023-11-01T04:10:15.402Z,11.40
2023-11-01T04:12:42.295Z,11.20
2023-11-01T04:15:11.203Z,10.90
2023-11-01T04:17:39.184Z,10.93
2023-11-01T04:20:09.181Z,11.12
2023-11-01T04:22:38.152Z,11.16
2023-11-01T04:25:06.690Z,11.17
2023-11-01T04:27:40.943Z,10.98
2023-11-01T04:30:09.669Z,10.92
2023-11-01T04:32:37.457Z,10.83
2023-11-01T04:35:05.247Z,10.92
2023-11-01T04:37:32.135Z,11.07
2023-11-01T04:39:58.783Z,11.16
2023-11-01T04:42:25.645Z,11.11
2023-11-01T04:44:52.671Z,11.05
2023-11-01T04:47:19.543Z,11.09
2023-11-01T04:49:47.130Z,11.14
2023-11-01T04:52:13.811Z,11.04
2023-11-01T04:54:40.793Z,11.05
2023-11-01T04:57:07.475Z,11.14
2023-11-01T04:59:34.591Z,11.16
2023-11-01T05:02:01.332Z,11.14
2023-11-01T05:04:28.049Z,10.85
2023-11-01T05:06:54.884Z,10.74
2023-11-01T05:09:21.570Z,10.62
2023-11-01T05:11:49.456Z,10.75
2023-11-01T05:14:16.543Z,10.77
2023-11-01T05:16:43.289Z,10.84
2023-11-01T05:19:10.226Z,10.79
2023-11-01T05:21:38.057Z,10.53
2023-11-01T05:24:05.303Z,10.61
2023-11-01T05:26:35.575Z,10.65
2023-11-01T05:29:03.203Z,10.51
2023-11-01T05:31:29.934Z,10.59
2023-11-01T05:33:57.018Z,10.39
2023-11-01T05:36:23.776Z,10.31
2023-11-01T05:38:50.501Z,10.42
2023-11-01T05:41:17.299Z,10.41
2023-11-01T05:43:45.208Z,10.48
2023-11-01T05:46:12.012Z,10.56
2023-11-01T05:48:39.083Z,10.54
2023-11-01T05:51:06.758Z,10.59
2023-11-01T05:53:33.783Z,10.77
2023-11-01T05:56:08.310Z,10.71
2023-11-01T05:58:38.034Z,10.69
2023-11-01T06:01:05.142Z,10.30
2023-11-01T06:03:32.465Z,10.41
2023-11-01T06:05:59.879Z,10.49
2023-11-01T06:08:26.894Z,10.71
2023-11-01T06:10:55.402Z,10.86
2023-11-01T06:13:22.545Z,11.76
2023-11-01T06:15:53.025Z,13.13
2023-11-01T06:18:20.563Z,14.31
2023-11-01T06:20:47.371Z,15.00
2023-11-01T06:23:14.140Z,15.04
2023-11-01T06:25:41.288Z,16.41
2023-11-01T06:28:09.917Z,18.06
2023-11-01T06:30:36.856Z,18.89
2023-11-01T06:33:04.009Z,19.22
2023-11-01T06:35:30.901Z,20.61
2023-11-01T06:37:57.626Z,20.86
2023-11-01T06:40:24.552Z,20.43
2023-11-01T06:42:51.364Z,19.56
2023-11-01T06:45:18.156Z,20.43
2023-11-01T06:47:44.886Z,21.35
2023-11-01T06:50:11.656Z,19.94
2023-11-01T06:52:38.409Z,18.63
2023-11-01T06:55:06.436Z,18.88
2023-11-01T06:57:33.197Z,18.65
2023-11-01T06:59:59.930Z,18.42
2023-11-01T07:02:27.729Z,18.50
2023-11-01T07:04:54.550Z,19.35
2023-11-01T07:07:21.275Z,21.06
2023-11-01T07:09:47.939Z,22.08
2023-11-01T07:12:14.855Z,22.85
2023-11-01T07:14:41.575Z,23.80
2023-11-01T07:17:10.355Z,22.59
2023-11-01T07:19:37.078Z,22.59
2023-11-01T07:22:03.855Z,22.80
2023-11-01T07:24:31.596Z,23.43
2023-11-01T07:27:00.331Z,23.49
2023-11-01T07:29:27.051Z,24.47
2023-11-01T07:31:54.923Z,23.51
2023-11-01T07:34:21.713Z,24.72
2023-11-01T07:36:48.946Z,24.01
2023-11-01T07:39:15.668Z,24.88
2023-11-01T07:41:42.464Z,25.66
2023-11-01T07:44:09.204Z,25.27
2023-11-01T07:46:36.335Z,24.99
2023-11-01T07:49:03.160Z,23.91
2023-11-01T07:51:30.582Z,23.72
2023-11-01T07:53:57.387Z,21.64
2023-11-01T07:56:24.643Z,22.09
2023-11-01T07:58:51.362Z,22.65
2023-11-01T08:01:18.102Z,23.17
2023-11-01T08:03:45.133Z,23.31
2023-11-01T08:06:11.932Z,23.50
2023-11-01T08:08:38.856Z,24.22
2023-11-01T08:11:12.079Z,24.91
2023-11-01T08:13:38.760Z,24.16
2023-11-01T08:16:06.045Z,24.45
2023-11-01T08:18:32.848Z,24.07
2023-11-01T08:20:59.717Z,23.55
2023-11-01T08:23:26.491Z,23.96
2023-11-01T08:25:53.298Z,23.89
2023-11-01T08:28:20.159Z,25.35
2023-11-01T08:30:46.862Z,26.40
2023-11-01T08:33:13.684Z,26.15
2023-11-01T08:35:40.552Z,26.41
2023-11-01T08:38:09.888Z,25.98
2023-11-01T08:40:36.833Z,25.56
2023-11-01T08:43:03.579Z,25.41
2023-11-01T08:45:30.216Z,25.32
2023-11-01T08:47:57.049Z,25.68
2023-11-01T08:50:23.778Z,25.51
2023-11-01T08:52:50.525Z,25.62
2023-11-01T08:55:18.025Z,27.38
2023-11-01T08:57:46.199Z,26.84
2023-11-01T09:00:15.015Z,26.18
2023-11-01T09:02:42.009Z,26.42
2023-11-01T09:05:09.170Z,26.11
2023-11-01T09:07:37.800Z,25.67
2023-11-01T09:10:04.947Z,25.82
2023-11-01T09:12:31.702Z,25.06
2023-11-01T09:14:58.797Z,24.56
2023-11-01T09:17:26.375Z,25.52
2023-11-01T09:19:53.191Z,26.41
2023-11-01T09:22:19.894Z,25.60
2023-11-01T09:24:46.682Z,25.06
2023-11-01T09:27:13.362Z,24.98
2023-11-01T09:29:40.104Z,26.11
2023-11-01T09:32:07.392Z,26.06
2023-11-01T09:34:34.261Z,25.21
2023-11-01T09:37:01.076Z,25.13
2023-11-01T09:39:27.974Z,25.58
2023-11-01T09:42:04.084Z,26.13
2023-11-01T09:44:31.291Z,25.08
2023-11-01T09:46:59.071Z,25.03
2023-11-01T09:49:26.404Z,25.67
2023-11-01T09:51:53.663Z,25.47
2023-11-01T09:54:20.980Z,25.77
2023-11-01T09:56:48.531Z,25.94
2023-11-01T09:59:15.805Z,24.89
2023-11-01T10:01:42.583Z,24.28
2023-11-01T10:04:10.046Z,23.15
2023-11-01T10:06:37.941Z,22.08
2023-11-01T10:09:06.442Z,21.84
2023-11-01T10:11:33.793Z,22.33
2023-11-01T10:14:01.871Z,23.25
2023-11-01T10:16:29.380Z,22.63
2023-11-01T10:18:56.570Z,22.43
2023-11-01T10:21:28.968Z,21.97
2023-11-01T10:23:59.827Z,21.63
2023-11-01T10:26:31.001Z,21.39
2023-11-01T10:28:59.127Z,21.14
2023-11-01T10:31:26.219Z,21.21
2023-11-01T10:33:53.476Z,21.05
2023-11-01T10:36:21.732Z,20.87
2023-11-01T10:38:52.282Z,20.64
2023-11-01T10:41:19.992Z,20.59
2023-11-01T10:43:48.470Z,20.59
2023-11-01T10:46:16.390Z,20.67
2023-11-01T10:48:45.350Z,20.32
2023-11-01T10:51:13.052Z,20.30
2023-11-01T10:53:41.225Z,19.91
2023-11-01T10:56:08.738Z,19.96
2023-11-01T10:58:41.058Z,19.90
2023-11-01T11:01:28.512Z,19.96
2023-11-01T11:04:04.042Z,20.00
2023-11-01T11:06:40.345Z,20.10
2023-11-01T11:09:24.608Z,19.75
2023-11-01T11:12:18.007Z,19.86
2023-11-01T11:14:49.381Z,20.01
2023-11-01T11:17:17.923Z,20.02
2023-11-01T11:20:06.668Z,19.60
2023-11-01T11:23:04.339Z,19.86
2023-11-01T11:25:40.112Z,19.95
2023-11-01T11:28:09.960Z,20.09
2023-11-01T11:31:05.258Z,20.09
2023-11-01T11:33:32.918Z,20.17
2023-11-01T11:36:26.569Z,20.13
2023-11-01T11:38:59.168Z,20.10
2023-11-01T11:41:37.837Z,20.11
2023-11-01T11:44:15.157Z,20.12
2023-11-01T11:46:54.856Z,19.97
2023-11-01T11:49:38.808Z,20.01
2023-11-01T11:52:12.895Z,19.86
2023-11-01T11:54:39.739Z,19.63
2023-11-01T11:57:09.192Z,19.58
2023-11-01T11:59:36.975Z,19.63
2023-11-01T12:02:08.350Z,19.58
2023-11-01T12:04:37.863Z,19.37
2023-11-01T12:07:07.598Z,19.24
2023-11-01T12:09:34.623Z,19.49
2023-11-01T12:12:11.175Z,19.32
2023-11-01T12:14:39.061Z,19.22
2023-11-01T12:17:06.484Z,19.03
2023-11-01T12:19:36.587Z,18.93
2023-11-01T12:22:03.349Z,18.85
2023-11-01T12:24:39.294Z,18.78
2023-11-01T12:27:11.061Z,18.75
2023-11-01T12:29:51.617Z,18.49
2023-11-01T12:32:20.625Z,18.54
2023-11-01T12:34:47.386Z,18.61
2023-11-01T12:37:20.048Z,18.61
2023-11-01T12:40:06.556Z,18.53
2023-11-01T12:42:35.372Z,18.63
2023-11-01T12:45:02.649Z,18.43
2023-11-01T12:47:58.544Z,18.40
2023-11-01T12:50:27.427Z,18.47
2023-11-01T12:52:55.341Z,18.58
2023-11-01T12:55:22.390Z,18.40
2023-11-01T12:57:56.870Z,18.46
2023-11-01T13:00:24.746Z,18.42
2023-11-01T13:02:52.539Z,18.48
2023-11-01T13:05:19.821Z,18.65
2023-11-01T13:07:47.104Z,18.61
2023-11-01T13:10:17.511Z,18.65
2023-11-01T13:12:47.404Z,18.73
2023-11-01T13:15:15.880Z,18.72
2023-11-01T13:17:42.844Z,18.72
2023-11-01T13:20:10.002Z,18.82
2023-11-01T13:22:36.963Z,18.89
2023-11-01T13:25:03.864Z,18.87
2023-11-01T13:27:30.870Z,18.88
2023-11-01T13:29:57.760Z,18.63
2023-11-01T13:32:24.470Z,18.60
2023-11-01T13:34:51.176Z,18.29
2023-11-01T13:37:17.957Z,18.72
2023-11-01T13:39:44.802Z,18.65
2023-11-01T13:42:15.696Z,18.88
2023-11-01T13:44:44.546Z,18.70
2023-11-01T13:47:12.124Z,18.68
2023-11-01T13:49:41.208Z,18.59
2023-11-01T13:52:08.573Z,18.53
2023-11-01T13:54:35.464Z,18.45
2023-11-01T13:57:04.500Z,18.33
2023-11-01T13:59:31.651Z,18.33
2023-11-01T14:01:58.619Z,18.28
2023-11-01T14:04:26.725Z,18.21
2023-11-01T14:06:53.587Z,18.12
2023-11-01T14:09:20.525Z,17.95
2023-11-01T14:11:52.695Z,17.93
2023-11-01T14:14:22.569Z,17.84
2023-11-01T14:16:49.453Z,17.80
2023-11-01T14:19:16.245Z,17.87
2023-11-01T14:21:42.960Z,17.82
2023-11-01T14:24:11.076Z,17.75
2023-11-01T14:26:38.982Z,17.66
2023-11-01T14:29:05.991Z,17.63
2023-11-01T14:31:32.717Z,17.57
2023-11-01T14:33:59.507Z,17.46
2023-11-01T14:36:26.326Z,17.34
2023-11-01T14:38:53.266Z,17.33
2023-11-01T14:41:19.980Z,17.19
2023-11-01T14:43:46.929Z,17.19
2023-11-01T14:46:14.743Z,17.04
2023-11-01T14:48:44.774Z,17.08
2023-11-01T14:51:11.685Z,17.11
2023-11-01T14:53:38.634Z,17.22
2023-11-01T14:56:16.188Z,17.09
2023-11-01T14:58:45.645Z,17.23
2023-11-01T15:01:12.503Z,17.28
2023-11-01T15:03:43.382Z,17.15
2023-11-01T15:06:10.844Z,17.25
2023-11-01T15:08:42.552Z,17.17
2023-11-01T15:11:11.484Z,17.04
2023-11-01T15:13:38.418Z,17.08
2023-11-01T15:16:05.613Z,17.10
2023-11-01T15:18:32.849Z,17.08
2023-11-01T15:20:59.746Z,17.10
2023-11-01T15:23:26.470Z,17.06
2023-11-01T15:25:53.250Z,17.12
2023-11-01T15:28:19.937Z,17.07
2023-11-01T15:30:46.622Z,16.94
2023-11-01T15:33:13.461Z,16.98
2023-11-01T15:35:40.723Z,16.93
2023-11-01T15:38:07.483Z,16.80
2023-11-01T15:40:34.969Z,16.81
2023-11-01T15:43:01.704Z,16.84
2023-11-01T15:45:28.482Z,16.82
2023-11-01T15:47:56.197Z,16.80
2023-11-01T15:50:23.092Z,16.77
2023-11-01T15:52:49.811Z,16.61
2023-11-01T15:55:16.735Z,16.66
2023-11-01T15:57:43.426Z,16.67
2023-11-01T16:00:10.975Z,16.48
2023-11-01T16:02:38.038Z,16.32
2023-11-01T16:05:05.029Z,16.30
2023-11-01T16:07:32.594Z,16.21
2023-11-01T16:09:59.448Z,16.04
2023-11-01T16:12:26.731Z,16.08
2023-11-01T16:14:53.405Z,16.09
2023-11-01T16:17:20.112Z,16.07
2023-11-01T16:19:46.815Z,16.07
2023-11-01T16:22:15.473Z,16.04
2023-11-01T16:24:42.518Z,15.84
2023-11-01T16:27:09.281Z,15.64
2023-11-01T16:29:36.096Z,15.82
2023-11-01T16:32:03.328Z,15.70
2023-11-01T16:34:30.021Z,15.86
2023-11-01T16:36:56.726Z,15.67
2023-11-01T16:39:23.708Z,15.55
2023-11-01T16:41:50.507Z,15.66
2023-11-01T16:44:17.239Z,15.63
2023-11-01T16:46:44.057Z,15.60
2023-11-01T16:49:10.917Z,15.73
2023-11-01T16:51:37.627Z,15.79
2023-11-01T16:54:04.615Z,15.81
2023-11-01T16:56:31.323Z,15.62
2023-11-01T16:58:57.989Z,15.61
2023-11-01T17:01:24.901Z,15.43
2023-11-01T17:03:54.349Z,15.64
2023-11-01T17:06:21.636Z,15.62
2023-11-01T17:08:49.079Z,15.63
2023-11-01T17:11:16.316Z,15.62
2023-11-01T17:13:43.628Z,15.68
2023-11-01T17:16:11.443Z,15.72
2023-11-01T17:18:42.044Z,15.42
2023-11-01T17:21:09.306Z,15.29
2023-11-01T17:23:36.078Z,15.28
2023-11-01T17:26:26.604Z,15.27
2023-11-01T17:28:54.668Z,15.30
2023-11-01T17:31:42.834Z,15.21
2023-11-01T17:34:11.462Z,15.26
2023-11-01T17:36:38.768Z,15.20
2023-11-01T17:39:07.463Z,15.25
2023-11-01T17:41:53.854Z,15.20
2023-11-01T17:44:25.859Z,15.06
2023-11-01T17:46:57.845Z,14.93
2023-11-01T17:49:49.880Z,14.79
2023-11-01T17:52:24.110Z,14.78
2023-11-01T17:54:53.027Z,14.70
2023-11-01T17:57:20.417Z,14.68
2023-11-01T17:59:47.639Z,14.69
2023-11-01T18:02:40.545Z,14.60
2023-11-01T18:05:34.969Z,14.55
2023-11-01T18:08:06.977Z,14.56
2023-11-01T18:10:40.366Z,14.54
2023-11-01T18:13:27.816Z,14.36
2023-11-01T18:16:25.487Z,14.28
2023-11-01T18:18:56.505Z,14.38
2023-11-01T18:21:29.492Z,14.35
2023-11-01T18:24:00.586Z,14.41
2023-11-01T18:26:34.339Z,14.38
2023-11-01T18:29:04.008Z,14.31
2023-11-01T18:31:37.997Z,14.30
2023-11-01T18:34:07.088Z,14.28
2023-11-01T18:36:41.472Z,14.09
2023-11-01T18:39:12.351Z,14.06
2023-11-01T18:41:41.241Z,14.13
2023-11-01T18:44:29.394Z,14.05
2023-11-01T18:46:58.045Z,14.04
2023-11-01T18:50:05.417Z,13.77
2023-11-01T18:52:32.747Z,13.53
2023-11-01T18:55:00.454Z,13.57
2023-11-01T18:57:31.929Z,13.74
2023-11-01T18:59:58.925Z,13.74
2023-11-01T19:02:34.858Z,13.72
2023-11-01T19:05:10.096Z,13.73
2023-11-01T19:07:47.897Z,13.71
2023-11-01T19:10:23.182Z,13.67
2023-11-01T19:12:53.965Z,13.62
2023-11-01T19:15:36.348Z,13.63
2023-11-01T19:18:15.905Z,13.68
2023-11-01T19:20:45.216Z,13.72
2023-11-01T19:23:13.445Z,13.63
2023-11-01T19:25:40.242Z,13.63
2023-11-01T19:28:06.978Z,13.63
2023-11-01T19:30:33.625Z,13.64
2023-11-01T19:33:01.032Z,13.56
2023-11-01T19:35:27.907Z,13.36
2023-11-01T19:37:54.639Z,13.41
2023-11-01T19:40:25.032Z,13.36
2023-11-01T19:42:52.659Z,13.33
2023-11-01T19:45:19.839Z,13.35
2023-11-01T19:47:47.302Z,13.34
2023-11-01T19:50:26.520Z,13.33
2023-11-01T19:52:54.297Z,13.36
2023-11-01T19:55:21.050Z,13.33
2023-11-01T19:57:48.767Z,13.39
2023-11-01T20:00:16.198Z,13.36
2023-11-01T20:02:43.555Z,13.23
2023-11-01T20:05:10.606Z,13.02
2023-11-01T20:07:37.698Z,12.77
2023-11-01T20:10:11.476Z,12.69
2023-11-01T20:12:39.940Z,12.92
2023-11-01T20:15:13.690Z,13.02
2023-11-01T20:17:40.821Z,13.11
2023-11-01T20:20:09.093Z,13.15
2023-11-01T20:22:45.124Z,13.27
2023-11-01T20:25:13.496Z,13.18
2023-11-01T20:27:41.777Z,13.25
2023-11-01T20:30:09.209Z,13.24
2023-11-01T20:32:36.802Z,13.24
2023-11-01T20:35:03.757Z,13.18
2023-11-01T20:37:30.808Z,12.79
2023-11-01T20:39:57.633Z,12.48
2023-11-01T20:42:24.446Z,12.43
2023-11-01T20:44:51.843Z,12.71
2023-11-01T20:47:19.978Z,12.89
2023-11-01T20:49:48.003Z,13.02
2023-11-01T20:52:15.358Z,13.15
2023-11-01T20:54:55.279Z,13.29
2023-11-01T20:57:24.360Z,13.20
2023-11-01T20:59:51.256Z,13.34
2023-11-01T21:02:18.067Z,13.09
2023-11-01T21:04:44.989Z,12.91
2023-11-01T21:07:11.870Z,13.13
2023-11-01T21:09:38.779Z,12.88
2023-11-01T21:12:06.056Z,13.07
2023-11-01T21:14:37.760Z,13.21
2023-11-01T21:17:07.464Z,13.12
2023-11-01T21:19:34.473Z,13.09
2023-11-01T21:22:01.432Z,12.89
2023-11-01T21:24:28.394Z,12.68
2023-11-01T21:26:55.978Z,12.78
2023-11-01T21:29:22.888Z,12.98
2023-11-01T21:31:49.880Z,13.03
2023-11-01T21:34:17.561Z,12.98
2023-11-01T21:36:45.152Z,12.84
2023-11-01T21:39:12.360Z,13.08
2023-11-01T21:41:42.777Z,13.13
2023-11-01T21:44:09.625Z,13.19
2023-11-01T21:46:36.734Z,13.03
2023-11-01T21:49:19.328Z,12.60
2023-11-01T21:51:46.157Z,12.53
2023-11-01T21:54:28.376Z,12.36
2023-11-01T21:56:55.283Z,12.45
2023-11-01T21:59:22.689Z,12.48
2023-11-01T22:01:50.644Z,12.47
2023-11-01T22:04:22.223Z,12.54
2023-11-01T22:06:50.741Z,12.58
2023-11-01T22:09:19.065Z,12.52
2023-11-01T22:11:51.992Z,12.41
2023-11-01T22:14:32.624Z,12.09
2023-11-01T22:17:04.046Z,11.95
2023-11-01T22:19:35.723Z,12.04
2023-11-01T22:22:12.736Z,12.25
2023-11-01T22:24:43.076Z,12.18
2023-11-01T22:27:12.172Z,11.93
2023-11-01T22:29:44.731Z,12.10
2023-11-01T22:32:23.931Z,12.13
2023-11-01T22:34:53.692Z,12.22
2023-11-01T22:37:23.368Z,12.24
2023-11-01T22:39:53.878Z,12.29
2023-11-01T22:42:31.881Z,12.34
2023-11-01T22:45:02.837Z,12.38
2023-11-01T22:47:31.121Z,12.37
2023-11-01T22:49:58.970Z,12.14
2023-11-01T22:52:25.733Z,11.96
2023-11-01T22:54:52.416Z,11.96
2023-11-01T22:57:19.189Z,11.87
2023-11-01T22:59:45.941Z,12.03
2023-11-01T23:02:14.854Z,12.09
2023-11-01T23:04:43.130Z,12.11
2023-11-01T23:07:12.903Z,12.07
2023-11-01T23:09:39.653Z,12.01
2023-11-01T23:12:06.988Z,11.84
2023-11-01T23:14:34.347Z,12.02
2023-11-01T23:17:01.301Z,12.04
2023-11-01T23:19:27.999Z,11.99
2023-11-01T23:21:54.768Z,11.84
2023-11-01T23:24:24.410Z,11.89
2023-11-01T23:26:55.309Z,12.01
2023-11-01T23:29:29.707Z,12.05
2023-11-01T23:31:57.469Z,12.07
2023-11-01T23:34:43.600Z,12.04
2023-11-01T23:37:19.645Z,11.51
2023-11-01T23:39:46.767Z,11.25
2023-11-01T23:42:15.240Z,11.33
2023-11-01T23:44:42.494Z,11.57
2023-11-01T23:47:10.702Z,11.55
2023-11-01T23:52:31.503Z,11.71
2023-11-01T23:54:59.197Z,11.73
2023-11-01T23:57:29.573Z,11.72
2023-11-01T23:59:57.404Z,11.66
